Latest Weather Observations for Warra

IDT60801

Issued at 11:32 am EST Thursday 29 September 2016 (issued every 30 minutes, with the page automatically refreshed every 10 minutes)

About weather observations | Map of weather stations | Latest weather observations for TAS | Other Formats
Station Details ID: 097024 Name: WARRA Lat: -43.06 Lon: 146.70 Height: 495.0 m
Data from the previous 72 hours. | See also: Recent months at Warra
Date/Time
EST
Temp
°C
App
Temp
°C
Dew
Point
°C
Rel
Hum
%
Delta-T
°C
Wind Press
QNH
hPa
Press
MSL
hPa
Rain since
9am
mm
Dir  Spd
km/h
Gust
km/h
Spd
kts
Gust
kts
29/11:30am 10.5 8.2 10.3 99 0.1 E 13 26 7 14 - - 0.0
29/11:00am 10.3 7.7 9.5 95 0.4 E 13 24 7 13 - - 0.0
29/10:30am 10.2 8.4 9.4 95 0.4 E 9 15 5 8 - - 0.0
29/10:00am 9.7 8.3 9.4 98 0.2 ESE 7 15 4 8 - - 0.0
29/09:30am 9.1 6.7 8.6 97 0.2 E 11 22 6 12 - - 0.0
29/09:00am 8.9 6.4 8.1 95 0.4 E 11 17 6 9 - - 0.0
29/08:30am 8.5 6.5 7.3 92 0.6 ENE 7 13 4 7 - - 0.0
29/08:00am 8.3 5.5 6.8 90 0.7 ENE 11 17 6 9 - - 0.0
29/07:30am 7.8 5.2 6.1 89 0.8 NE 9 13 5 7 - - 0.0
29/07:00am 7.5 4.4 5.6 88 0.9 E 11 17 6 9 - - 0.0
29/06:30am 7.5 5.1 5.1 85 1.1 E 7 13 4 7 - - 0.0
29/06:00am 7.1 4.7 4.4 83 1.2 NE 6 9 3 5 - - 0.0
29/05:30am 6.5 4.4 4.0 84 1.1 N 4 11 2 6 - - 0.0
29/05:00am 6.9 3.9 4.2 83 1.2 NNE 9 17 5 9 - - 0.0
29/04:30am 6.2 3.1 3.4 82 1.2 NNE 9 17 5 9 - - 0.0
29/04:00am 5.9 1.9 3.1 82 1.2 N 13 20 7 11 - - 0.0
29/03:30am 6.2 2.2 3.0 80 1.4 NE 13 22 7 12 - - 0.0
29/03:00am 6.1 2.1 2.7 79 1.4 NNE 13 20 7 11 - - 0.0
29/02:30am 6.1 2.9 2.9 80 1.4 NE 9 15 5 8 - - 0.0
29/02:00am 6.8 3.1 2.1 72 2.0 NE 11 20 6 11 - - 0.0
29/01:30am 7.0 2.9 2.5 73 1.9 NNE 13 26 7 14 - - 0.0
29/01:00am 6.5 3.4 5.5 93 0.5 NNE 11 20 6 11 - - 0.0
29/12:30am 6.5 4.0 6.4 99 0.0 NNE 9 20 5 11 - - 0.0
29/12:00am 6.2 3.6 6.1 99 0.0 NE 9 11 5 6 - - 0.0
 
Date/Time
EST
Temp
°C
App
Temp
°C
Dew
Point
°C
Rel
Hum
%
Delta-T
°C
Wind Press
QNH
hPa
Press
MSL
hPa
Rain since
9am
mm
Dir  Spd
km/h
Gust
km/h
Spd
kts
Gust
kts
28/11:30pm 6.5 4.0 6.4 99 0.0 ENE 9 13 5 7 - - 0.0
28/11:00pm 6.6 4.1 6.5 99 0.0 NE 9 13 5 7 - - 0.0
28/10:30pm 6.9 4.4 6.6 98 0.1 NE 9 15 5 8 - - 0.0
28/10:00pm 7.0 4.1 6.4 96 0.3 ENE 11 20 6 11 - - 0.0
28/09:30pm 7.2 4.6 6.3 94 0.4 ENE 9 15 5 8 - - 0.0
28/09:00pm 7.3 5.0 5.9 91 0.6 ENE 7 11 4 6 - - 0.0
28/08:30pm 7.3 4.6 5.6 89 0.8 ENE 9 13 5 7 - - 0.0
28/08:00pm 7.3 4.9 5.4 88 0.9 E 7 13 4 7 - - 0.0
28/07:30pm 7.3 4.8 5.0 85 1.0 E 7 13 4 7 - - 0.0
28/07:00pm 7.6 5.3 4.9 83 1.2 ENE 6 9 3 5 - - 0.0
28/06:30pm 8.1 5.2 4.7 79 1.5 E 9 19 5 10 - - 0.0
28/06:00pm 8.7 5.8 4.5 75 1.9 ENE 9 17 5 9 - - 0.0
28/05:30pm 9.2 5.4 3.8 69 2.4 ENE 13 22 7 12 - - 0.0
28/05:00pm 10.2 7.1 3.7 64 2.9 E 9 20 5 11 - - 0.0
28/04:30pm 11.2 8.3 4.9 65 2.9 SE 9 15 5 8 - - 0.0
28/04:00pm 11.4 8.5 4.8 64 3.1 SE 9 17 5 9 - - 0.0
28/03:30pm 11.9 8.5 4.2 59 3.6 SE 11 17 6 9 - - 0.0
28/03:00pm 12.7 9.5 2.8 51 4.5 E 9 11 5 6 - - 0.0
28/02:30pm 11.8 9.0 3.1 55 3.9 E 7 13 4 7 - - 0.0
28/02:00pm 11.7 8.1 3.0 55 3.9 ENE 11 19 6 10 - - 0.0
28/01:30pm 12.0 8.8 3.3 55 4.0 ENE 9 17 5 9 - - 0.0
28/01:00pm 12.4 8.8 3.1 53 4.2 NNE 11 19 6 10 - - 0.0
28/12:30pm 12.4 10.1 4.6 59 3.7 SSE 6 15 3 8 - - 0.0
28/12:00pm 10.8 7.8 4.0 63 3.1 SE 9 15 5 8 - - 0.0
28/11:30am 11.1 7.3 3.9 61 3.3 ENE 13 37 7 20 - - 0.0
28/11:00am 10.6 7.1 5.6 71 2.4 NNE 13 20 7 11 - - 0.0
28/10:30am 8.9 6.7 5.1 77 1.8 SSE 6 11 3 6 - - 0.0
28/10:00am 8.2 7.1 5.0 80 1.5 CALM 0 6 0 3 - - 0.0
28/09:30am 8.9 5.9 3.9 71 2.2 N 9 11 5 6 - - 0.0
28/09:00am 8.1 4.9 3.0 70 2.2 NNW 9 17 5 9 - - 1.0
28/08:30am 8.9 5.2 4.3 73 2.1 NW 13 20 7 11 - - 1.0
28/08:00am 7.9 5.0 4.8 81 1.4 NNE 9 13 5 7 - - 1.0
28/07:30am 7.0 3.2 4.0 81 1.3 NW 13 19 7 10 - - 1.0
28/07:00am 4.7 1.9 3.4 91 0.6 N 7 11 4 6 - - 1.0
28/06:30am 4.7 1.8 2.7 87 0.8 WNW 7 13 4 7 - - 1.0
28/06:00am 4.6 1.4 2.8 88 0.8 W 9 17 5 9 - - 1.0
28/05:30am 3.9 -0.1 2.7 92 0.5 WNW 13 20 7 11 - - 1.0
28/05:00am 4.1 0.1 3.1 93 0.4 WNW 13 24 7 13 - - 1.0
28/04:30am 3.9 0.5 3.8 99 0.0 WNW 11 17 6 9 - - 1.0
28/04:00am 4.1 1.1 4.1 100 0.0 WNW 9 17 5 9 - - 1.0
28/03:30am 4.3 3.0 4.2 99 0.0 CALM 0 7 0 4 - - 1.0
28/03:00am 5.0 3.1 4.9 99 0.0 WNW 4 11 2 6 - - 1.0
28/02:30am 5.8 3.1 5.7 99 0.0 NW 9 17 5 9 - - 0.8
28/02:00am 5.6 1.7 5.3 98 0.1 NNW 15 24 8 13 - - 0.8
28/01:30am 5.9 2.0 5.3 96 0.3 NNW 15 24 8 13 - - 0.8
28/01:00am 6.0 1.9 4.6 91 0.6 NW 15 20 8 11 - - 0.4
28/12:30am 6.3 1.8 4.3 87 0.9 NW 17 30 9 16 - - 0.2
28/12:00am 6.8 2.1 3.1 77 1.6 NW 17 26 9 14 - - 0.0
 
Date/Time
EST
Temp
°C
App
Temp
°C
Dew
Point
°C
Rel
Hum
%
Delta-T
°C
Wind Press
QNH
hPa
Press
MSL
hPa
Rain since
9am
mm
Dir  Spd
km/h
Gust
km/h
Spd
kts
Gust
kts
27/11:30pm 7.0 3.0 2.9 75 1.8 NNW 13 24 7 13 - - 0.0
27/11:00pm 6.6 3.7 4.4 86 1.0 NW 9 17 5 9 - - 0.0
27/10:30pm 6.5 3.2 4.3 86 1.0 NW 11 20 6 11 - - 0.0
27/10:00pm 6.5 4.2 4.8 89 0.8 WNW 6 9 3 5 - - 0.0
27/09:30pm 6.9 3.0 5.4 90 0.7 NW 15 24 8 13 - - 0.0
27/09:00pm 5.7 4.0 4.0 89 0.7 N 2 7 1 4 - - 0.0
27/08:30pm 7.0 4.6 5.2 88 0.8 E 7 11 4 6 - - 0.0
27/08:00pm 7.2 4.4 5.2 87 0.9 WNW 9 19 5 10 - - 0.0
27/07:30pm 7.0 4.9 5.6 91 0.6 WNW 6 7 3 4 - - 0.0
27/07:00pm 7.8 5.8 6.3 90 0.7 NW 6 9 3 5 - - 0.0
27/06:30pm 9.0 6.4 6.3 83 1.3 NNW 9 13 5 7 - - 0.0
27/06:00pm 10.0 7.1 4.8 70 2.4 WNW 9 17 5 9 - - 0.0
27/05:30pm 10.6 7.6 4.1 64 3.0 WSW 9 17 5 9 - - 0.0
27/05:00pm 12.0 9.3 3.8 57 3.8 WSW 7 9 4 5 - - 0.0
27/04:30pm 12.0 9.3 2.7 53 4.2 NNW 6 13 3 7 - - 0.0
27/04:00pm 12.8 10.0 2.9 51 4.5 WSW 7 11 4 6 - - 0.0
27/03:30pm 12.5 9.7 2.9 52 4.3 W 7 13 4 7 - - 0.0
27/03:00pm 12.5 10.0 3.7 55 4.1 SW 6 11 3 6 - - 0.0
27/02:30pm 11.8 8.4 4.1 59 3.6 SW 11 19 6 10 - - 0.0
27/02:00pm 11.5 8.9 4.0 60 3.4 WSW 7 13 4 7 - - 0.0
27/01:30pm 11.6 8.3 4.6 62 3.3 WSW 11 17 6 9 - - 0.0
27/01:00pm 13.2 10.0 5.1 58 3.9 NW 11 19 6 10 - - 0.0
27/12:30pm 13.1 10.3 5.3 59 3.7 ESE 9 15 5 8 - - 0.0
27/12:00pm 12.5 9.7 5.0 60 3.6 ESE 9 17 5 9 - - 0.0
27/11:30am 12.0 8.8 5.0 62 3.3 ENE 11 19 6 10 - - 0.0
27/11:00am 11.9 9.0 4.9 62 3.3 E 9 19 5 10 - - 0.0
27/10:30am 10.7 7.8 4.4 65 2.9 E 9 15 5 8 - - 0.0
27/10:00am 10.4 8.1 5.8 73 2.2 ESE 7 11 4 6 - - 0.0
27/09:30am 9.5 7.0 4.7 72 2.2 NE 7 11 4 6 - - 0.0
27/09:00am 8.8 6.4 5.4 79 1.6 ENE 7 9 4 5 - - 0.2
27/08:30am 7.4 6.0 5.7 89 0.8 E 2 7 1 4 - - 0.2
27/08:00am 7.0 5.9 7.0 100 0.0 ESE 2 7 1 4 - - 0.2
27/07:30am 5.9 4.2 5.9 100 0.0 SSE 4 7 2 4 - - 0.2
27/07:00am 4.4 3.2 4.4 100 0.0 CALM 0 0 0 0 - - 0.2
27/06:30am 2.6 1.0 2.6 100 0.0 CALM 0 0 0 0 - - 0.2
27/06:00am 0.1 -1.9 0.1 100 0.0 CALM 0 2 0 1 - - 0.2
27/05:30am 0.3 -2.8 0.3 100 0.0 WSW 6 7 3 4 - - 0.2
27/05:00am 0.6 -1.3 0.6 100 0.0 CALM 0 0 0 0 - - 0.2
27/04:30am 0.4 -1.9 0.4 100 0.0 W 2 7 1 4 - - 0.2
27/04:00am 0.4 -1.9 0.4 100 0.0 WNW 2 7 1 4 - - 0.2
27/03:30am 0.2 -1.8 0.2 100 0.0 CALM 0 0 0 0 - - 0.2
27/03:00am 0.4 -2.3 0.4 100 0.0 WSW 4 7 2 4 - - 0.2
27/02:30am 0.6 -2.4 0.6 100 0.0 W 6 7 3 4 - - 0.2
27/02:00am 0.9 -0.9 0.9 100 0.0 CALM 0 0 0 0 - - 0.2
27/01:30am 0.8 -1.1 0.8 100 0.0 CALM 0 0 0 0 - - 0.2
27/01:00am 0.9 -2.3 0.9 100 0.0 W 7 9 4 5 - - 0.2
27/12:30am 1.7 -1.3 1.7 100 0.0 W 7 9 4 5 - - 0.2
27/12:00am 2.0 0.3 1.9 99 0.0 CALM 0 0 0 0 - - 0.2
 
Date/Time
EST
Temp
°C
App
Temp
°C
Dew
Point
°C
Rel
Hum
%
Delta-T
°C
Wind Press
QNH
hPa
Press
MSL
hPa
Rain since
9am
mm
Dir  Spd
km/h
Gust
km/h
Spd
kts
Gust
kts
26/11:30pm 2.8 0.1 2.7 99 0.0 NW 6 7 3 4 - - 0.2
26/11:00pm 4.5 1.8 3.9 96 0.3 WSW 7 9 4 5 - - 0.2
26/10:30pm 4.7 2.2 4.6 99 0.0 NNW 7 9 4 5 - - 0.2
26/10:00pm 3.9 0.8 3.8 99 0.0 W 9 11 5 6 - - 0.2
26/09:30pm 4.0 0.9 3.4 96 0.3 W 9 11 5 6 - - 0.2
26/09:00pm 5.0 2.3 3.8 92 0.5 WSW 7 9 4 5 - - 0.2
26/08:30pm 5.5 3.0 4.0 90 0.7 SW 6 9 3 5 - - 0.2
26/08:00pm 4.8 2.1 3.6 92 0.5 WSW 7 9 4 5 - - 0.2
26/07:30pm 6.0 3.9 3.7 85 1.0 S 4 9 2 5 - - 0.2
26/07:00pm 6.4 3.9 3.7 83 1.2 SE 6 11 3 6 - - 0.2
26/06:30pm 7.3 4.7 4.3 81 1.3 SE 7 11 4 6 - - 0.2
26/06:00pm 8.5 6.0 3.8 72 2.1 S 6 9 3 5 - - 0.2
26/05:30pm 9.1 6.1 4.1 71 2.3 W 9 11 5 6 - - 0.2
26/05:00pm 9.3 5.5 3.7 68 2.5 WSW 13 20 7 11 - - 0.2
26/04:30pm 10.0 6.0 2.6 60 3.3 WSW 13 22 7 12 - - 0.2
26/04:00pm 10.6 7.4 0.9 51 4.1 SSW 7 11 4 6 - - 0.2
26/03:30pm 10.6 7.3 2.4 57 3.6 SSW 9 17 5 9 - - 0.2
26/03:00pm 11.1 7.7 1.9 53 4.0 SW 9 13 5 7 - - 0.2
26/02:30pm 11.7 9.0 3.5 57 3.7 S 7 11 4 6 - - 0.2
26/02:00pm 10.8 7.4 1.9 54 3.9 SSW 9 15 5 8 - - 0.2
26/01:30pm 11.9 8.3 0.4 45 4.9 NNW 9 20 5 11 - - 0.2
26/01:00pm 12.4 8.5 1.1 46 4.9 NNW 11 15 6 8 - - 0.2
26/12:30pm 10.9 6.7 1.7 53 4.0 NNE 13 20 7 11 - - 0.2
26/12:00pm 10.8 7.4 2.1 55 3.8 NE 9 17 5 9 - - 0.2

Other Formats:

Comma delimited format used in spreadsheet applications
http://www.bom.gov.au/fwo/IDT60801/IDT60801.95962.axf

JavaScript Object Notation format (JSON) in row-major order
http://www.bom.gov.au/fwo/IDT60801/IDT60801.95962.json